createdAt,value
2022-12-27T00:01:44.938Z,100924.78
2022-12-27T00:06:50.428Z,100924.67
2022-12-27T00:11:59.738Z,100926.73
2022-12-27T00:17:03.042Z,100924.73
2022-12-27T00:22:08.504Z,100916.81
2022-12-27T00:27:14.024Z,100926.33
2022-12-27T00:32:19.819Z,100923.16
2022-12-27T00:37:25.265Z,100928.22
2022-12-27T00:42:30.720Z,100929.20
2022-12-27T00:47:36.246Z,100926.11
2022-12-27T00:52:41.659Z,100928.31
2022-12-27T00:57:47.107Z,100935.42
2022-12-27T01:02:52.904Z,100928.00
2022-12-27T01:07:58.520Z,100936.30
2022-12-27T01:13:05.343Z,100940.02
2022-12-27T01:18:10.721Z,100937.46
2022-12-27T01:23:16.436Z,100945.32
2022-12-27T01:28:21.887Z,100938.44
2022-12-27T01:33:27.391Z,100949.30
2022-12-27T01:38:33.046Z,100956.80
2022-12-27T01:43:40.171Z,100967.38
2022-12-27T01:48:46.307Z,100973.66
2022-12-27T01:53:54.105Z,100977.79
2022-12-27T01:59:05.439Z,100982.80
2022-12-27T02:04:20.102Z,100995.22
2022-12-27T02:09:52.363Z,101001.59
2022-12-27T02:14:59.425Z,100990.72
2022-12-27T02:20:17.093Z,100995.63
2022-12-27T02:25:25.523Z,100999.05
2022-12-27T02:30:33.270Z,101007.98
2022-12-27T02:35:41.665Z,101014.16
2022-12-27T02:41:06.084Z,101013.79
2022-12-27T02:46:35.536Z,101019.55
2022-12-27T02:52:28.140Z,101021.21
2022-12-27T02:57:53.574Z,101021.61
2022-12-27T03:03:27.922Z,101034.00
2022-12-27T03:08:36.425Z,101049.58
2022-12-27T03:14:06.021Z,101049.02
2022-12-27T03:19:22.269Z,101051.98
2022-12-27T03:24:48.434Z,101052.45
2022-12-27T03:30:14.905Z,101056.10
2022-12-27T03:35:23.769Z,101065.83
2022-12-27T03:41:14.441Z,101066.78
2022-12-27T03:46:34.851Z,101069.76
2022-12-27T03:51:43.454Z,101066.82
2022-12-27T03:56:49.074Z,101070.22
2022-12-27T04:01:54.831Z,101069.88
2022-12-27T04:07:00.847Z,101079.33
2022-12-27T04:12:24.878Z,101059.34
2022-12-27T04:17:48.719Z,101059.34
2022-12-27T04:23:12.076Z,101088.89
2022-12-27T04:28:35.552Z,101080.47
2022-12-27T04:33:59.118Z,101072.11
2022-12-27T04:39:04.980Z,101085.92
2022-12-27T04:44:28.578Z,101089.62
2022-12-27T04:49:52.971Z,101088.37
2022-12-27T04:54:58.929Z,101092.75
2022-12-27T05:00:24.094Z,101092.75
2022-12-27T05:05:29.632Z,101083.27
2022-12-27T05:10:53.127Z,101083.27
2022-12-27T05:15:58.787Z,101093.92
2022-12-27T05:21:07.286Z,101093.92
2022-12-27T05:26:14.169Z,101097.70
2022-12-27T05:31:20.229Z,101104.14
2022-12-27T05:36:26.559Z,101104.98
2022-12-27T05:41:32.108Z,101095.99
2022-12-27T05:46:37.693Z,101103.20
2022-12-27T05:51:44.149Z,101107.63
2022-12-27T05:56:49.770Z,101104.31
2022-12-27T06:01:55.398Z,101115.11
2022-12-27T06:07:00.936Z,101125.34
2022-12-27T06:12:07.275Z,101104.91
2022-12-27T06:17:12.726Z,101134.53
2022-12-27T06:22:18.101Z,101149.67
2022-12-27T06:27:23.633Z,101142.44
2022-12-27T06:32:29.166Z,101147.59
2022-12-27T06:37:34.534Z,101145.61
2022-12-27T06:42:40.637Z,101130.53
2022-12-27T06:47:46.020Z,101153.20
2022-12-27T06:52:51.399Z,101143.69
2022-12-27T06:57:56.891Z,101148.98
2022-12-27T07:03:03.971Z,101165.77
2022-12-27T07:08:09.465Z,101174.47
2022-12-27T07:13:14.910Z,101180.50
2022-12-27T07:18:20.543Z,101195.41
2022-12-27T07:23:26.251Z,101195.41
2022-12-27T07:28:32.047Z,101199.66
2022-12-27T07:33:38.642Z,101213.10
2022-12-27T07:38:44.929Z,101213.10
2022-12-27T07:43:50.550Z,101212.23
2022-12-27T07:48:58.840Z,101207.84
2022-12-27T07:54:04.693Z,101211.25
2022-12-27T07:59:12.958Z,101215.53
2022-12-27T08:04:18.477Z,101229.90
2022-12-27T08:09:27.039Z,101194.13
2022-12-27T08:14:32.496Z,101217.55
2022-12-27T08:19:38.105Z,101207.26
2022-12-27T08:24:44.106Z,101220.81
2022-12-27T08:29:50.213Z,101216.45
2022-12-27T08:35:07.032Z,101223.42
2022-12-27T08:40:03.400Z,101223.45
2022-12-27T08:45:10.054Z,101224.03
2022-12-27T08:50:16.447Z,101216.30
2022-12-27T08:55:21.898Z,101219.19
2022-12-27T09:00:28.694Z,101232.70
2022-12-27T09:05:41.440Z,101231.97
2022-12-27T09:10:42.731Z,101235.98
2022-12-27T09:15:48.205Z,101241.38
2022-12-27T09:20:53.884Z,101244.20
2022-12-27T09:25:59.493Z,101250.89
2022-12-27T09:31:05.684Z,101244.05
2022-12-27T09:36:20.621Z,101251.80
2022-12-27T09:47:05.472Z,101244.66
2022-12-27T09:52:19.839Z,101251.55
2022-12-27T09:57:28.432Z,101246.66
2022-12-27T10:02:35.809Z,101251.18
2022-12-27T10:08:02.249Z,101246.19
2022-12-27T10:13:22.831Z,101249.12
2022-12-27T10:19:04.897Z,101285.20
2022-12-27T10:24:22.401Z,101256.40
2022-12-27T10:29:28.484Z,101264.52
2022-12-27T10:34:34.103Z,101269.58
2022-12-27T10:39:40.617Z,101258.87
2022-12-27T10:44:46.215Z,101271.41
2022-12-27T10:50:03.902Z,101278.22
2022-12-27T10:55:12.419Z,101301.75
2022-12-27T11:00:25.148Z,101306.36
2022-12-27T11:05:33.375Z,101306.53
2022-12-27T11:10:38.902Z,101301.80
2022-12-27T11:15:45.933Z,101300.24
2022-12-27T11:20:55.175Z,101312.28
2022-12-27T11:26:03.862Z,101322.06
2022-12-27T11:31:13.708Z,101339.05
2022-12-27T11:36:37.522Z,101340.06
2022-12-27T11:41:46.040Z,101330.22
2022-12-27T11:47:06.736Z,101343.89
2022-12-27T11:52:32.267Z,101348.92
2022-12-27T11:58:04.579Z,101355.38
2022-12-27T12:03:18.831Z,101378.80
2022-12-27T12:08:43.811Z,101372.17
2022-12-27T12:14:15.152Z,101385.69
2022-12-27T12:19:40.190Z,101382.31
2022-12-27T12:25:02.849Z,101383.55
2022-12-27T12:30:27.673Z,101393.16
2022-12-27T12:35:52.780Z,101405.18
2022-12-27T12:41:04.070Z,101403.34
2022-12-27T12:46:31.599Z,101395.41
2022-12-27T12:51:51.928Z,101392.95
2022-12-27T12:57:09.343Z,101403.12
2022-12-27T13:02:34.977Z,101395.41
2022-12-27T13:08:03.143Z,101419.42
2022-12-27T13:13:29.187Z,101416.37
2022-12-27T13:19:09.344Z,101426.17
2022-12-27T13:24:29.518Z,101436.52
2022-12-27T13:29:40.384Z,101440.55
2022-12-27T13:35:11.127Z,101449.09
2022-12-27T13:40:39.660Z,101450.18
2022-12-27T13:46:07.984Z,101456.70
2022-12-27T13:51:50.413Z,101462.91
2022-12-27T13:57:18.404Z,101473.30
2022-12-27T14:02:48.236Z,101461.84
2022-12-27T14:08:08.834Z,101468.14
2022-12-27T14:13:16.176Z,101469.38
2022-12-27T14:18:47.118Z,101475.89
2022-12-27T14:24:07.793Z,101473.94
2022-12-27T14:29:36.550Z,101469.29
2022-12-27T14:35:06.082Z,101473.83
2022-12-27T14:40:23.522Z,101483.76
2022-12-27T14:45:57.162Z,101473.50
2022-12-27T14:51:58.165Z,101485.47
2022-12-27T14:56:35.962Z,101504.89
2022-12-27T15:01:46.988Z,101517.55
2022-12-27T15:07:04.591Z,101510.56
2022-12-27T15:12:22.076Z,101506.81
2022-12-27T15:17:33.355Z,101515.31
2022-12-27T15:23:01.016Z,101527.20
2022-12-27T15:28:18.291Z,101528.71
2022-12-27T15:33:35.931Z,101517.41
2022-12-27T15:38:54.083Z,101519.44
2022-12-27T15:44:20.581Z,101520.98
2022-12-27T15:49:48.672Z,101527.91
2022-12-27T15:55:13.603Z,101524.52
2022-12-27T16:00:34.018Z,101533.45
2022-12-27T16:05:47.801Z,101540.02
2022-12-27T16:10:53.944Z,101540.44
2022-12-27T16:16:00.514Z,101534.42
2022-12-27T16:21:21.221Z,101544.63
2022-12-27T16:26:32.501Z,101543.30
2022-12-27T16:31:45.533Z,101547.31
2022-12-27T16:36:50.683Z,101549.82
2022-12-27T16:41:59.185Z,101538.33
2022-12-27T16:47:19.531Z,101552.27
2022-12-27T16:52:49.506Z,101537.09
2022-12-27T16:57:57.937Z,101540.19
2022-12-27T17:03:32.384Z,101548.98
2022-12-27T17:08:37.931Z,101558.19
2022-12-27T17:13:49.534Z,101553.02
2022-12-27T17:19:06.542Z,101547.84
2022-12-27T17:24:18.196Z,101552.88
2022-12-27T17:29:30.133Z,101555.14
2022-12-27T17:34:41.791Z,101568.43
2022-12-27T17:40:05.421Z,101581.98
2022-12-27T17:45:19.900Z,101570.16
2022-12-27T17:50:27.275Z,101568.55
2022-12-27T17:55:50.921Z,101577.59
2022-12-27T18:01:02.483Z,101579.66
2022-12-27T18:06:08.757Z,101582.44
2022-12-27T18:11:15.937Z,101585.02
2022-12-27T18:16:27.651Z,101566.48
2022-12-27T18:21:33.738Z,101581.50
2022-12-27T18:26:42.128Z,101578.87
2022-12-27T18:31:52.399Z,101590.78
2022-12-27T18:37:03.976Z,101602.36
2022-12-27T18:42:27.647Z,101600.89
2022-12-27T18:47:36.182Z,101586.16
2022-12-27T18:52:42.503Z,101575.91
2022-12-27T18:57:48.703Z,101579.19
2022-12-27T19:02:56.204Z,101595.77
2022-12-27T19:08:05.173Z,101594.55
2022-12-27T19:13:13.832Z,101594.55
2022-12-27T19:18:22.340Z,101597.84
2022-12-27T19:23:39.942Z,101605.77
2022-12-27T19:29:03.776Z,101591.59
2022-12-27T19:34:12.582Z,101600.55
2022-12-27T19:39:21.368Z,101601.77
2022-12-27T19:44:27.026Z,101601.05
2022-12-27T19:49:43.109Z,101603.36
2022-12-27T19:54:39.879Z,101600.82
2022-12-27T19:59:45.396Z,101600.82
2022-12-27T20:04:51.082Z,101599.52
2022-12-27T20:09:56.593Z,101603.22
2022-12-27T20:15:02.125Z,101605.30
2022-12-27T20:20:08.897Z,101605.10
2022-12-27T20:25:14.495Z,101599.41
2022-12-27T20:30:20.076Z,101590.16
2022-12-27T20:35:25.963Z,101586.59
2022-12-27T20:40:31.734Z,101585.39
2022-12-27T20:45:37.354Z,101595.95
2022-12-27T20:50:43.508Z,101612.95
2022-12-27T20:55:52.399Z,101614.38
2022-12-27T21:00:58.145Z,101614.38
2022-12-27T21:06:12.741Z,101609.13
2022-12-27T21:11:21.328Z,101608.89
2022-12-27T21:16:29.556Z,101608.89
2022-12-27T21:21:38.258Z,101597.97
2022-12-27T21:26:43.842Z,101592.41
2022-12-27T21:31:49.427Z,101589.28
2022-12-27T21:36:55.336Z,101589.77
2022-12-27T21:42:01.485Z,101591.00
2022-12-27T21:47:07.509Z,101590.20
2022-12-27T21:52:14.558Z,101591.17
2022-12-27T21:57:20.200Z,101574.09
2022-12-27T22:02:25.847Z,101573.70
2022-12-27T22:07:31.311Z,101580.13
2022-12-27T22:12:37.061Z,101580.13
2022-12-27T22:17:42.588Z,101568.72
2022-12-27T22:22:48.037Z,101556.86
2022-12-27T22:27:53.637Z,101558.61
2022-12-27T22:32:59.085Z,101554.20
2022-12-27T22:38:05.347Z,101533.44
2022-12-27T22:43:10.878Z,101530.82
2022-12-27T22:48:16.449Z,101540.50
2022-12-27T22:53:21.996Z,101539.18
2022-12-27T22:58:33.036Z,101528.09
2022-12-27T23:03:38.553Z,101525.37
2022-12-27T23:08:45.396Z,101526.62
2022-12-27T23:13:56.738Z,101519.03
2022-12-27T23:19:02.338Z,101501.48
2022-12-27T23:24:09.459Z,101490.50
2022-12-27T23:29:15.948Z,101490.50
2022-12-27T23:34:27.712Z,101482.27
2022-12-27T23:39:30.581Z,101474.84
2022-12-27T23:44:36.126Z,101476.39
2022-12-27T23:49:41.636Z,101476.39
2022-12-27T23:54:47.212Z,101476.60
2022-12-27T23:59:54.689Z,101479.61
